Terminal Aerodrome Forecast
Issued by NWS Miami, FL

Home | Current Version | Previous Version | Text Only | Print | Product List | Glossary On
Versions: 1 2 3 4 5 6 7 8 9 10 11 12 13 14 15 16 17 18 19 20 21 22 23 24 25 26
000
FTUS42 KMFL 281731
TAFPBI
TAF
KPBI 281731Z 2818/2918 11009KT P6SM VCTS SCT030CB BKN070 BKN250
     FM290000 10003KT P6SM VCSH SCT040 BKN200
     FM290600 VRB05KT P6SM FEW040 SCT200
     FM291700 10009KT P6SM VCTS SCT025CB SCT200=

USA.gov is the U.S. government's official web portal to all federal, state and local government web resources and services.